createdAt,value
2019-03-03T00:01:01.954Z,34.60
2019-03-03T00:03:29.029Z,39.42
2019-03-03T00:05:55.611Z,39.73
2019-03-03T00:08:24.567Z,35.10
2019-03-03T00:10:50.902Z,35.58
2019-03-03T00:13:17.497Z,31.73
2019-03-03T00:15:44.176Z,32.93
2019-03-03T00:18:10.766Z,37.35
2019-03-03T00:20:37.488Z,33.55
2019-03-03T00:23:04.187Z,35.90
2019-03-03T00:25:30.866Z,36.93
2019-03-03T00:27:57.515Z,37.85
2019-03-03T00:30:25.138Z,38.70
2019-03-03T00:32:51.835Z,35.98
2019-03-03T00:35:18.559Z,41.35
2019-03-03T00:37:53.962Z,42.88
2019-03-03T00:40:28.438Z,41.77
2019-03-03T00:43:12.058Z,37.48
2019-03-03T00:45:57.406Z,40.30
2019-03-03T00:48:44.311Z,42.95
2019-03-03T00:51:30.938Z,44.15
2019-03-03T00:54:11.710Z,47.10
2019-03-03T00:56:40.212Z,44.20
2019-03-03T00:59:08.668Z,38.58
2019-03-03T01:01:42.968Z,43.02
2019-03-03T01:04:14.015Z,44.40
2019-03-03T01:06:42.500Z,42.60
2019-03-03T01:09:46.042Z,41.23
2019-03-03T01:12:14.773Z,48.90
2019-03-03T01:14:46.107Z,43.08
2019-03-03T01:17:17.360Z,41.28
2019-03-03T01:19:45.763Z,32.33
2019-03-03T01:22:32.363Z,40.35
2019-03-03T01:24:59.049Z,41.53
2019-03-03T01:27:25.676Z,41.95
2019-03-03T01:29:53.491Z,42.67
2019-03-03T01:32:20.286Z,41.40
2019-03-03T01:34:46.981Z,37.67
2019-03-03T01:37:13.671Z,35.78
2019-03-03T01:39:40.394Z,36.15
2019-03-03T01:42:06.988Z,36.08
2019-03-03T01:44:33.663Z,40.52
2019-03-03T01:47:00.326Z,41.40
2019-03-03T01:49:27.013Z,42.35
2019-03-03T01:51:53.777Z,38.35
2019-03-03T01:54:20.476Z,37.25
2019-03-03T01:56:47.087Z,37.70
2019-03-03T01:59:13.733Z,38.13
2019-03-03T02:01:40.477Z,36.05
2019-03-03T02:04:07.075Z,39.65
2019-03-03T02:06:33.667Z,35.13
2019-03-03T02:09:00.339Z,39.83
2019-03-03T02:11:26.951Z,36.77
2019-03-03T02:13:53.563Z,46.45
2019-03-03T02:16:20.367Z,39.03
2019-03-03T02:18:46.956Z,42.55
2019-03-03T02:21:13.581Z,39.27
2019-03-03T02:23:40.488Z,44.65
2019-03-03T02:26:07.078Z,42.43
2019-03-03T02:28:33.695Z,46.88
2019-03-03T02:31:00.365Z,43.20
2019-03-03T02:33:27.172Z,40.00
2019-03-03T02:35:53.909Z,39.05
2019-03-03T02:38:20.658Z,39.83
2019-03-03T02:40:47.248Z,41.10
2019-03-03T02:43:13.928Z,42.58
2019-03-03T02:45:40.611Z,42.75
2019-03-03T02:48:07.302Z,40.33
2019-03-03T02:50:34.011Z,36.20
2019-03-03T02:53:00.746Z,41.15
2019-03-03T02:55:27.352Z,39.08
2019-03-03T02:57:54.023Z,41.20
2019-03-03T03:00:22.007Z,38.92
2019-03-03T03:02:50.037Z,43.10
2019-03-03T03:05:20.035Z,37.85
2019-03-03T03:07:48.532Z,41.63
2019-03-03T03:10:26.010Z,41.00
2019-03-03T03:12:54.436Z,39.05
2019-03-03T03:15:25.786Z,39.13
2019-03-03T03:17:54.198Z,38.33
2019-03-03T03:20:37.743Z,38.13
2019-03-03T03:23:18.299Z,40.05
2019-03-03T03:26:03.730Z,37.85
2019-03-03T03:28:35.142Z,39.10
2019-03-03T03:31:06.453Z,38.10
2019-03-03T03:33:34.858Z,40.73
2019-03-03T03:36:06.424Z,36.33
2019-03-03T03:38:43.792Z,38.98
2019-03-03T03:41:12.194Z,35.80
2019-03-03T03:43:57.208Z,43.30
2019-03-03T03:46:38.709Z,37.88
2019-03-03T03:49:10.014Z,39.85
2019-03-03T03:51:56.101Z,37.83
2019-03-03T03:54:27.515Z,37.23
2019-03-03T03:56:58.942Z,37.45
2019-03-03T03:59:33.236Z,40.83
2019-03-03T04:02:07.596Z,35.83
2019-03-03T04:04:41.666Z,37.28
2019-03-03T04:07:10.169Z,39.50
2019-03-03T04:09:41.147Z,37.20
2019-03-03T04:12:26.207Z,39.73
2019-03-03T04:15:00.715Z,38.83
2019-03-03T04:17:32.160Z,38.10
2019-03-03T04:20:06.189Z,41.23
2019-03-03T04:22:40.794Z,39.10
2019-03-03T04:25:09.194Z,45.38
2019-03-03T04:27:37.660Z,42.83
2019-03-03T04:30:09.037Z,42.85
2019-03-03T04:32:52.931Z,31.68
2019-03-03T04:35:21.369Z,41.25
2019-03-03T04:37:56.026Z,45.08
2019-03-03T04:40:30.479Z,44.95
2019-03-03T04:42:59.011Z,42.58
2019-03-03T04:45:27.533Z,39.25
2019-03-03T04:47:55.952Z,42.90
2019-03-03T04:50:30.497Z,40.73
2019-03-03T04:53:02.112Z,40.95
2019-03-03T04:55:34.694Z,44.38
2019-03-03T04:58:19.792Z,48.13
2019-03-03T05:01:05.071Z,45.73
2019-03-03T05:03:54.018Z,41.25
2019-03-03T05:06:30.107Z,41.40
2019-03-03T05:08:58.587Z,44.42
2019-03-03T05:11:59.915Z,41.85
2019-03-03T05:14:28.373Z,47.78
2019-03-03T05:16:56.794Z,38.48
2019-03-03T05:19:23.520Z,40.20
2019-03-03T05:21:50.123Z,45.23
2019-03-03T05:24:16.789Z,42.08
2019-03-03T05:26:43.469Z,41.92
2019-03-03T05:29:10.159Z,40.30
2019-03-03T05:31:36.804Z,39.55
2019-03-03T05:34:03.534Z,43.17
2019-03-03T05:36:30.130Z,41.58
2019-03-03T05:38:56.813Z,35.92
2019-03-03T05:41:23.543Z,41.48
2019-03-03T05:43:51.204Z,42.62
2019-03-03T05:46:17.845Z,42.05
2019-03-03T05:48:44.533Z,43.48
2019-03-03T05:51:11.137Z,41.98
2019-03-03T05:53:37.799Z,42.80
2019-03-03T05:56:04.458Z,42.53
2019-03-03T05:58:31.174Z,41.42
2019-03-03T06:00:57.862Z,43.23
2019-03-03T06:03:24.670Z,44.33
2019-03-03T06:05:51.298Z,41.92
2019-03-03T06:08:18.037Z,49.00
2019-03-03T06:10:44.728Z,43.15
2019-03-03T06:13:11.451Z,49.42
2019-03-03T06:15:38.148Z,47.78
2019-03-03T06:18:04.902Z,43.35
2019-03-03T06:20:31.644Z,62.10
2019-03-03T06:22:58.298Z,55.28
2019-03-03T06:25:24.983Z,49.25
2019-03-03T06:27:51.674Z,53.75
2019-03-03T06:30:18.387Z,47.58
2019-03-03T06:32:45.094Z,46.45
2019-03-03T06:35:12.487Z,46.13
2019-03-03T06:37:39.161Z,45.58
2019-03-03T06:40:08.404Z,41.08
2019-03-03T06:42:35.053Z,43.30
2019-03-03T06:45:01.788Z,40.30
2019-03-03T06:47:28.534Z,39.55
2019-03-03T06:49:55.166Z,38.13
2019-03-03T06:52:21.816Z,54.35
2019-03-03T06:54:48.595Z,44.38
2019-03-03T06:57:15.243Z,42.58
2019-03-03T06:59:41.926Z,41.85
2019-03-03T07:02:08.741Z,34.88
2019-03-03T07:04:35.404Z,38.65
2019-03-03T07:07:02.028Z,38.23
2019-03-03T07:09:28.775Z,48.17
2019-03-03T07:11:55.413Z,46.30
2019-03-03T07:14:22.059Z,41.58
2019-03-03T07:16:48.814Z,43.20
2019-03-03T07:19:15.451Z,45.73
2019-03-03T07:21:42.070Z,35.88
2019-03-03T07:24:08.755Z,32.70
2019-03-03T07:26:35.355Z,33.25
2019-03-03T07:29:02.038Z,39.10
2019-03-03T07:31:28.714Z,31.87
2019-03-03T07:33:55.733Z,34.05
2019-03-03T07:36:22.445Z,31.80
2019-03-03T07:38:49.142Z,28.60
2019-03-03T07:41:15.829Z,34.03
2019-03-03T07:43:42.461Z,34.38
2019-03-03T07:46:09.168Z,30.48
2019-03-03T07:48:35.838Z,33.92
2019-03-03T07:51:02.492Z,34.65
2019-03-03T07:53:29.196Z,36.13
2019-03-03T07:55:55.797Z,32.65
2019-03-03T07:58:22.451Z,31.80
2019-03-03T08:00:49.129Z,31.87
2019-03-03T08:03:15.778Z,34.85
2019-03-03T08:05:42.455Z,30.52
2019-03-03T08:08:09.173Z,33.53
2019-03-03T08:10:35.769Z,32.67
2019-03-03T08:13:09.230Z,32.58
2019-03-03T08:15:31.041Z,42.85
2019-03-03T08:17:57.691Z,32.30
2019-03-03T08:20:24.419Z,31.15
2019-03-03T08:22:51.086Z,34.83
2019-03-03T08:25:17.819Z,34.33
2019-03-03T08:27:44.515Z,33.38
2019-03-03T08:30:15.589Z,30.77
2019-03-03T08:32:42.168Z,29.23
2019-03-03T08:35:11.471Z,33.02
2019-03-03T08:37:39.153Z,32.03
2019-03-03T08:40:07.946Z,32.35
2019-03-03T08:42:36.472Z,32.90
2019-03-03T08:45:06.592Z,30.55
2019-03-03T08:47:35.023Z,31.05
2019-03-03T08:50:03.550Z,29.10
2019-03-03T08:52:32.191Z,35.33
2019-03-03T08:55:00.619Z,34.05
2019-03-03T08:57:35.073Z,32.63
2019-03-03T09:00:10.100Z,34.08
2019-03-03T09:02:41.571Z,31.95
2019-03-03T09:05:16.095Z,25.23
2019-03-03T09:07:50.152Z,32.13
2019-03-03T09:10:27.399Z,31.82
2019-03-03T09:12:58.908Z,33.75
2019-03-03T09:15:39.814Z,34.30
2019-03-03T09:18:08.219Z,32.53
2019-03-03T09:20:39.479Z,34.50
2019-03-03T09:23:20.061Z,25.80
2019-03-03T09:25:48.528Z,34.55
2019-03-03T09:28:25.876Z,30.65
2019-03-03T09:31:00.428Z,38.08
2019-03-03T09:33:39.384Z,35.13
2019-03-03T09:36:31.713Z,31.45
2019-03-03T09:39:34.578Z,34.35
2019-03-03T09:42:10.667Z,36.13
2019-03-03T09:44:45.133Z,35.57
2019-03-03T09:47:16.838Z,31.37
2019-03-03T09:49:45.459Z,31.12
2019-03-03T09:52:13.974Z,32.60
2019-03-03T09:54:43.535Z,37.13
2019-03-03T09:57:18.393Z,32.63
2019-03-03T09:59:52.746Z,31.48
2019-03-03T10:02:27.392Z,31.75
2019-03-03T10:04:59.175Z,34.78
2019-03-03T10:07:33.525Z,32.45
2019-03-03T10:10:17.111Z,30.12
2019-03-03T10:13:03.968Z,29.20
2019-03-03T10:15:50.536Z,30.32
2019-03-03T10:18:31.110Z,31.00
2019-03-03T10:21:03.426Z,32.15
2019-03-03T10:23:39.009Z,31.10
2019-03-03T10:26:10.324Z,28.75
2019-03-03T10:28:45.143Z,29.72
2019-03-03T10:31:22.931Z,28.60
2019-03-03T10:33:51.466Z,31.68
2019-03-03T10:36:19.895Z,31.23
2019-03-03T10:38:57.357Z,29.82
2019-03-03T10:41:34.695Z,34.65
2019-03-03T10:44:05.998Z,32.17
2019-03-03T10:46:34.489Z,31.57
2019-03-03T10:49:08.770Z,46.85
2019-03-03T10:51:37.328Z,33.67
2019-03-03T10:54:18.121Z,29.92
2019-03-03T10:56:46.511Z,29.27
2019-03-03T10:59:17.739Z,28.73
2019-03-03T11:01:55.310Z,29.83
2019-03-03T11:04:24.747Z,57.65
2019-03-03T11:06:56.109Z,34.05
2019-03-03T11:09:41.493Z,28.20
2019-03-03T11:12:18.787Z,41.98
2019-03-03T11:14:56.546Z,30.55
2019-03-03T11:17:27.555Z,44.70
2019-03-03T11:19:59.301Z,90.30
2019-03-03T11:22:34.250Z,45.98
2019-03-03T11:25:15.851Z,164.35
2019-03-03T11:27:56.359Z,155.18
2019-03-03T11:30:38.453Z,201.52
2019-03-03T11:33:11.211Z,52.15
2019-03-03T11:35:53.111Z,19.87
2019-03-03T11:38:38.207Z,21.93
2019-03-03T11:41:21.786Z,24.85
2019-03-03T11:43:50.322Z,21.80
2019-03-03T11:46:21.954Z,19.60
2019-03-03T11:48:50.461Z,183.25
2019-03-03T11:51:35.852Z,18.20
2019-03-03T11:54:04.474Z,14.28
2019-03-03T11:56:49.611Z,10.63
2019-03-03T11:59:20.944Z,14.93
2019-03-03T12:01:59.536Z,10.23
2019-03-03T12:04:46.156Z,13.60
2019-03-03T12:07:26.835Z,9.18
2019-03-03T12:10:12.223Z,10.23
2019-03-03T12:12:49.613Z,8.25
2019-03-03T12:15:20.389Z,8.85
2019-03-03T12:17:54.705Z,7.87
2019-03-03T12:20:35.103Z,8.05
2019-03-03T12:23:06.393Z,5.95
2019-03-03T12:25:51.195Z,5.67
2019-03-03T12:28:36.274Z,7.28
2019-03-03T12:31:04.793Z,6.58
2019-03-03T12:33:36.049Z,5.03
2019-03-03T12:36:13.144Z,5.35
2019-03-03T12:38:47.664Z,6.12
2019-03-03T12:41:34.400Z,4.97
2019-03-03T12:44:02.834Z,5.67
2019-03-03T12:46:36.922Z,5.72
2019-03-03T12:49:11.270Z,5.50
2019-03-03T12:51:39.698Z,7.42
2019-03-03T12:54:24.721Z,5.10
2019-03-03T12:56:58.987Z,5.97
2019-03-03T12:59:39.399Z,6.10
2019-03-03T13:02:26.087Z,8.23
2019-03-03T13:05:12.162Z,6.97
2019-03-03T13:08:08.237Z,7.92
2019-03-03T13:10:39.827Z,9.90
2019-03-03T13:13:11.266Z,6.55
2019-03-03T13:15:48.841Z,8.50
2019-03-03T13:18:21.058Z,7.55
2019-03-03T13:20:55.499Z,6.25
2019-03-03T13:23:32.735Z,6.90
2019-03-03T13:26:07.214Z,9.65
2019-03-03T13:28:35.647Z,8.50
2019-03-03T13:31:13.179Z,7.00
2019-03-03T13:33:50.681Z,8.18
2019-03-03T13:36:37.343Z,6.50
2019-03-03T13:39:11.568Z,8.73
2019-03-03T13:41:40.044Z,5.50
2019-03-03T13:44:06.722Z,6.25
2019-03-03T13:46:33.347Z,6.97
2019-03-03T13:48:59.998Z,7.17
2019-03-03T13:51:26.751Z,6.62
2019-03-03T13:53:53.347Z,7.67
2019-03-03T13:56:20.018Z,5.55
2019-03-03T13:58:46.802Z,7.55
2019-03-03T14:01:13.422Z,5.33
2019-03-03T14:03:40.090Z,6.60
2019-03-03T14:06:07.808Z,6.30
2019-03-03T14:08:34.448Z,6.37
2019-03-03T14:11:01.077Z,6.40
2019-03-03T14:13:27.778Z,5.53
2019-03-03T14:15:54.407Z,6.17
2019-03-03T14:18:22.102Z,5.58
2019-03-03T14:20:48.859Z,5.12
2019-03-03T14:23:15.594Z,6.53
2019-03-03T14:25:42.306Z,6.72
2019-03-03T14:28:09.015Z,7.35
2019-03-03T14:30:35.667Z,5.35
2019-03-03T14:33:02.415Z,5.08
2019-03-03T14:35:29.121Z,6.80
2019-03-03T14:37:57.695Z,6.58
2019-03-03T14:40:24.440Z,6.30
2019-03-03T14:42:51.241Z,7.62
2019-03-03T14:45:18.572Z,6.00
2019-03-03T14:47:45.388Z,5.55
2019-03-03T14:50:20.500Z,5.33
2019-03-03T14:52:50.101Z,6.33
2019-03-03T14:55:18.086Z,9.20
2019-03-03T14:57:44.726Z,6.55
2019-03-03T15:00:28.687Z,5.70
2019-03-03T15:02:56.179Z,4.92
2019-03-03T15:05:22.864Z,6.03
2019-03-03T15:07:49.531Z,6.28
2019-03-03T15:10:16.189Z,6.33
2019-03-03T15:12:42.875Z,6.08
2019-03-03T15:15:12.403Z,5.58
2019-03-03T15:17:39.086Z,4.58
2019-03-03T15:20:06.901Z,6.90
2019-03-03T15:22:33.617Z,5.15
2019-03-03T15:25:00.349Z,4.30
2019-03-03T15:27:27.420Z,5.37
2019-03-03T15:29:54.185Z,5.75
2019-03-03T15:32:20.847Z,4.95
2019-03-03T15:34:47.529Z,5.55
2019-03-03T15:37:15.506Z,4.20
2019-03-03T15:39:42.162Z,4.85
2019-03-03T15:42:09.510Z,4.20
2019-03-03T15:44:36.231Z,4.72
2019-03-03T15:47:02.824Z,4.05
2019-03-03T15:49:30.280Z,5.30
2019-03-03T15:51:58.251Z,4.33
2019-03-03T15:54:24.919Z,7.25
2019-03-03T15:56:51.541Z,7.92
2019-03-03T15:59:18.248Z,5.97
2019-03-03T16:01:44.986Z,3.10
2019-03-03T16:04:11.683Z,3.05
2019-03-03T16:06:38.518Z,4.17
2019-03-03T16:09:05.229Z,4.87
2019-03-03T16:11:33.754Z,3.22
2019-03-03T16:14:00.356Z,5.67
2019-03-03T16:16:27.192Z,5.12
2019-03-03T16:18:53.938Z,5.58
2019-03-03T16:21:20.646Z,5.78
2019-03-03T16:23:47.283Z,4.25
2019-03-03T16:26:14.007Z,3.80
2019-03-03T16:28:40.626Z,6.10
2019-03-03T16:31:07.288Z,6.10
2019-03-03T16:33:34.044Z,6.25
2019-03-03T16:36:00.689Z,5.33
2019-03-03T16:38:27.319Z,4.22
2019-03-03T16:40:55.130Z,3.80
2019-03-03T16:43:21.765Z,3.55
2019-03-03T16:45:48.462Z,4.10
2019-03-03T16:48:15.181Z,4.20
2019-03-03T16:50:41.799Z,5.47
2019-03-03T16:53:08.577Z,7.15
2019-03-03T16:55:35.358Z,7.03
2019-03-03T16:58:01.984Z,7.58
2019-03-03T17:00:28.732Z,2.95
2019-03-03T17:02:55.404Z,4.45
2019-03-03T17:05:26.235Z,5.70
2019-03-03T17:07:52.895Z,7.03
2019-03-03T17:10:19.764Z,6.42
2019-03-03T17:12:46.463Z,13.85
2019-03-03T17:15:21.653Z,8.88
2019-03-03T17:17:48.321Z,7.92
2019-03-03T17:20:14.977Z,6.30
2019-03-03T17:22:41.628Z,8.25
2019-03-03T17:25:11.491Z,6.08
2019-03-03T17:27:38.119Z,10.43
2019-03-03T17:30:08.437Z,10.23
2019-03-03T17:32:35.137Z,13.15
2019-03-03T17:35:01.789Z,12.55
2019-03-03T17:37:28.506Z,11.53
2019-03-03T17:39:55.191Z,15.25
2019-03-03T17:42:21.916Z,12.68
2019-03-03T17:44:48.631Z,10.93
2019-03-03T17:47:15.357Z,7.33
2019-03-03T17:49:42.061Z,5.83
2019-03-03T17:52:08.730Z,6.72
2019-03-03T17:54:35.556Z,7.50
2019-03-03T17:57:02.335Z,4.70
2019-03-03T17:59:32.050Z,11.57
2019-03-03T18:01:58.796Z,6.45
2019-03-03T18:04:25.596Z,5.50
2019-03-03T18:06:53.462Z,10.10
2019-03-03T18:09:20.561Z,7.62
2019-03-03T18:11:47.266Z,7.42
2019-03-03T18:14:13.944Z,7.25
2019-03-03T18:16:40.635Z,9.00
2019-03-03T18:19:07.350Z,7.25
2019-03-03T18:21:34.065Z,8.48
2019-03-03T18:24:00.690Z,7.67
2019-03-03T18:26:27.379Z,7.92
2019-03-03T18:28:54.112Z,6.28
2019-03-03T18:31:20.794Z,9.23
2019-03-03T18:33:47.512Z,7.97
2019-03-03T18:36:14.653Z,9.65
2019-03-03T18:38:41.436Z,6.95
2019-03-03T18:41:08.110Z,9.40
2019-03-03T18:43:34.834Z,8.33
2019-03-03T18:46:01.423Z,8.28
2019-03-03T18:48:28.043Z,9.23
2019-03-03T18:50:54.718Z,8.60
2019-03-03T18:53:21.334Z,10.40
2019-03-03T18:55:48.646Z,11.40
2019-03-03T18:58:15.326Z,13.22
2019-03-03T19:00:41.940Z,11.18
2019-03-03T19:03:08.557Z,16.87
2019-03-03T19:05:36.322Z,14.73
2019-03-03T19:08:03.052Z,15.50
2019-03-03T19:10:34.301Z,11.05
2019-03-03T19:13:01.002Z,10.30
2019-03-03T19:15:27.663Z,11.80
2019-03-03T19:17:54.283Z,11.85
2019-03-03T19:20:21.225Z,13.05
2019-03-03T19:22:48.140Z,12.45
2019-03-03T19:25:15.199Z,13.15
2019-03-03T19:27:42.088Z,11.53
2019-03-03T19:30:25.774Z,12.07
2019-03-03T19:33:01.898Z,14.50
2019-03-03T19:35:28.602Z,17.90
2019-03-03T19:37:55.415Z,15.25
2019-03-03T19:40:22.100Z,10.82
2019-03-03T19:42:48.774Z,11.63
2019-03-03T19:45:18.704Z,12.23
2019-03-03T19:47:45.511Z,11.10
2019-03-03T19:50:13.305Z,12.00
2019-03-03T19:52:40.038Z,11.18
2019-03-03T19:55:09.563Z,14.43
2019-03-03T19:57:36.307Z,12.43
2019-03-03T20:00:12.103Z,12.00
2019-03-03T20:02:38.859Z,15.98
2019-03-03T20:05:05.655Z,16.45
2019-03-03T20:07:34.145Z,13.10
2019-03-03T20:10:03.493Z,15.00
2019-03-03T20:12:30.800Z,16.75
2019-03-03T20:14:57.410Z,14.18
2019-03-03T20:17:24.094Z,15.23
2019-03-03T20:19:50.784Z,16.87
2019-03-03T20:22:17.604Z,13.62
2019-03-03T20:24:45.083Z,16.95
2019-03-03T20:27:11.844Z,18.05
2019-03-03T20:29:38.437Z,17.92
2019-03-03T20:32:05.120Z,19.87
2019-03-03T20:34:31.784Z,16.62
2019-03-03T20:36:58.470Z,18.67
2019-03-03T20:39:25.229Z,18.80
2019-03-03T20:41:51.987Z,18.30
2019-03-03T20:44:18.615Z,18.07
2019-03-03T20:46:45.333Z,18.70
2019-03-03T20:49:12.054Z,16.90
2019-03-03T20:51:38.802Z,18.37
2019-03-03T20:54:05.534Z,21.65
2019-03-03T20:56:32.258Z,18.17
2019-03-03T20:58:58.961Z,18.77
2019-03-03T21:01:25.653Z,17.42
2019-03-03T21:03:52.328Z,14.60
2019-03-03T21:06:18.955Z,16.45
2019-03-03T21:08:45.704Z,16.40
2019-03-03T21:11:12.378Z,17.40
2019-03-03T21:13:39.121Z,18.82
2019-03-03T21:16:05.798Z,15.08
2019-03-03T21:18:32.499Z,14.47
2019-03-03T21:20:59.292Z,17.20
2019-03-03T21:23:26.126Z,16.95
2019-03-03T21:25:52.735Z,17.57
2019-03-03T21:28:19.387Z,18.62
2019-03-03T21:30:46.067Z,16.45
2019-03-03T21:33:12.815Z,19.45
2019-03-03T21:35:39.514Z,17.67
2019-03-03T21:38:06.226Z,17.85
2019-03-03T21:40:32.880Z,18.37
2019-03-03T21:42:59.536Z,15.83
2019-03-03T21:45:27.689Z,17.48
2019-03-03T21:47:55.039Z,16.65
2019-03-03T21:50:24.176Z,16.30
2019-03-03T21:52:50.897Z,18.42
2019-03-03T21:55:17.507Z,18.17
2019-03-03T21:57:44.178Z,18.23
2019-03-03T22:00:25.568Z,18.77
2019-03-03T22:02:52.396Z,20.50
2019-03-03T22:05:19.132Z,20.35
2019-03-03T22:07:45.976Z,22.87
2019-03-03T22:10:12.707Z,17.35
2019-03-03T22:12:39.449Z,17.35
2019-03-03T22:15:08.755Z,19.30
2019-03-03T22:17:35.384Z,18.98
2019-03-03T22:20:02.127Z,20.80
2019-03-03T22:22:28.861Z,17.42
2019-03-03T22:24:55.504Z,19.98
2019-03-03T22:27:22.246Z,18.25
2019-03-03T22:29:48.984Z,16.25
2019-03-03T22:32:15.598Z,17.92
2019-03-03T22:34:42.261Z,15.80
2019-03-03T22:37:09.010Z,15.60
2019-03-03T22:39:35.651Z,16.12
2019-03-03T22:42:02.275Z,17.67
2019-03-03T22:44:28.946Z,18.17
2019-03-03T22:46:55.533Z,15.25
2019-03-03T22:49:22.241Z,16.32
2019-03-03T22:51:48.939Z,15.10
2019-03-03T22:54:15.650Z,18.82
2019-03-03T22:56:42.356Z,15.25
2019-03-03T22:59:09.096Z,16.48
2019-03-03T23:01:36.564Z,13.95
2019-03-03T23:04:09.990Z,14.30
2019-03-03T23:06:52.558Z,14.20
2019-03-03T23:09:31.663Z,16.82
2019-03-03T23:12:07.908Z,14.60
2019-03-03T23:14:44.232Z,16.10
2019-03-03T23:17:31.203Z,18.55
2019-03-03T23:20:19.388Z,17.25
2019-03-03T23:22:58.151Z,18.20
2019-03-03T23:25:34.654Z,14.78
2019-03-03T23:28:01.337Z,18.85
2019-03-03T23:30:27.982Z,18.50
2019-03-03T23:32:54.601Z,17.52
2019-03-03T23:35:21.442Z,16.60
2019-03-03T23:37:48.118Z,15.65
2019-03-03T23:40:14.835Z,18.73
2019-03-03T23:42:41.519Z,21.55
2019-03-03T23:45:09.469Z,15.83
2019-03-03T23:47:36.099Z,20.08
2019-03-03T23:50:04.506Z,17.57
2019-03-03T23:52:31.101Z,15.50
2019-03-03T23:54:57.810Z,22.02
2019-03-03T23:57:24.500Z,19.67
2019-03-03T23:59:51.124Z,19.98
